Vremea acum in Hârlău - Romania

Vrei sa afli care e starea vremii acum in Iasi - Romania? Dorim sa iti furnizam starea vremii pentru Iasi - Romania. Starea vremii Iasi - Romania pentru astazi.

Vremea acum in Hârlău

Temperatura: 15.3 °C

Este: Senin
Se simte ca: 15.3 °C
Innorat: 0 %
Precipitatii: 0 %
Presiune atmosferica: 1014 hPa
Umiditate: 41%
Vizibilitate: 10 km
Vantul bate din W cu 6.5 km/h

Evolutia vremii in Hârlău pe ore

Ora: 05:00
Senin
Temperatura: 15.3°C
Sansa de precipitatii: 0%
Ora Descriere Temp Se simte Precipitatii Umiditate Vant
00:00Senin14°14.3°0%64%W 5 KM/H
01:00Senin12.5°12.4°0%68%W 5.4 KM/H
02:00Senin11.5°11.5°0%69%W 5 KM/H
03:00Senin11.1°10.7°0%68%W 5.8 KM/H
04:00Senin10.6°10.1°0%66%W 6.5 KM/H
05:00Senin15.3°9.8°0%41%W 6.5 KM/H
06:00Senin10.1°9.5°0%66%W 6.5 KM/H
07:00Senin11.4°11.4°0%66%W 5 KM/H
08:00Senin15.2°15.2°0%59%W 4 KM/H
09:00Senin17.8°17.9°0%53%SW 2.9 KM/H
10:00Senin20°20°0%49%SSE 4 KM/H
11:00Senin21.4°21.4°0%45%SSE 5.8 KM/H
12:00Senin22.5°24.2°0%40%SSE 7.6 KM/H
13:00Senin23.3°24.2°0%36%SSE 8.6 KM/H
14:00Senin23.7°24.3°0%34%SSE 9 KM/H
15:00Senin24°24.4°0%34%SE 9.4 KM/H
16:00Senin24°24.4°0%34%SE 9.4 KM/H
17:00Senin23.9°24.4°0%34%SE 10.1 KM/H
18:00Senin23.3°24.4°0%39%SE 10.8 KM/H
19:00Senin21.2°21.2°0%50%SE 9.7 KM/H
20:00Senin17.1°17.1°0%56%SSE 10.1 KM/H
21:00Senin15.1°15.1°0%58%SSW 8.3 KM/H
22:00Senin14°13.5°0%60%SSW 9 KM/H
23:00Senin12.9°12.6°0%66%SSW 7.2 KM/H




tutorials